createdAt,value
2018-12-21T00:00:57.534Z,1019.17
2018-12-21T00:01:57.644Z,1019.17
2018-12-21T00:02:57.613Z,1019.15
2018-12-21T00:03:57.579Z,1019.21
2018-12-21T00:04:57.700Z,1019.2
2018-12-21T00:05:57.632Z,1019.18
2018-12-21T00:06:57.687Z,1019.14
2018-12-21T00:07:58.861Z,1019.17
2018-12-21T00:08:57.776Z,1019.1
2018-12-21T00:09:58.051Z,1019.06
2018-12-21T00:10:57.568Z,1019.06
2018-12-21T00:11:57.650Z,1019.03
2018-12-21T00:12:57.483Z,1019.06
2018-12-21T00:13:57.536Z,1019.07
2018-12-21T00:14:57.564Z,1019.07
2018-12-21T00:15:57.593Z,1019.11
2018-12-21T00:16:57.618Z,1019.13
2018-12-21T00:17:57.495Z,1019.21
2018-12-21T00:18:57.602Z,1019.22
2018-12-21T00:19:57.529Z,1019.23
2018-12-21T00:20:57.463Z,1019.18
2018-12-21T00:21:57.495Z,1019.16
2018-12-21T00:22:57.527Z,1019.14
2018-12-21T00:23:57.675Z,1019.11
2018-12-21T00:24:57.647Z,1019.18
2018-12-21T00:25:57.450Z,1019.16
2018-12-21T00:26:57.452Z,1019.09
2018-12-21T00:27:57.651Z,1019.11
2018-12-21T00:28:57.508Z,1019.14
2018-12-21T00:29:57.615Z,1019.11
2018-12-21T00:30:57.585Z,1019.06
2018-12-21T00:31:57.512Z,1019.03
2018-12-21T00:32:57.674Z,1019.01
2018-12-21T00:33:57.468Z,1018.97
2018-12-21T00:34:57.458Z,1018.97
2018-12-21T00:35:57.500Z,1018.88
2018-12-21T00:36:57.476Z,1018.92
2018-12-21T00:37:57.532Z,1018.96
2018-12-21T00:38:57.492Z,1018.9
2018-12-21T00:39:57.588Z,1018.91
2018-12-21T00:40:57.670Z,1018.95
2018-12-21T00:41:57.462Z,1018.87
2018-12-21T00:42:57.451Z,1018.81
2018-12-21T00:43:57.549Z,1018.83
2018-12-21T00:44:57.622Z,1018.8
2018-12-21T00:45:57.623Z,1018.81
2018-12-21T00:46:57.681Z,1018.73
2018-12-21T00:47:57.717Z,1018.71
2018-12-21T00:48:57.603Z,1018.67
2018-12-21T00:49:57.599Z,1018.65
2018-12-21T00:50:57.610Z,1018.66
2018-12-21T00:51:57.587Z,1018.64
2018-12-21T00:52:57.446Z,1018.61
2018-12-21T00:53:57.456Z,1018.58
2018-12-21T00:54:57.610Z,1018.57
2018-12-21T00:55:57.496Z,1018.57
2018-12-21T00:56:57.423Z,1018.6
2018-12-21T00:57:57.552Z,1018.61
2018-12-21T00:58:57.456Z,1018.57
2018-12-21T00:59:57.595Z,1018.55
2018-12-21T01:00:57.468Z,1018.52
2018-12-21T01:01:57.508Z,1018.53
2018-12-21T01:02:57.443Z,1018.52
2018-12-21T01:03:57.423Z,1018.52
2018-12-21T01:04:57.461Z,1018.53
2018-12-21T01:05:57.585Z,1018.47
2018-12-21T01:06:57.421Z,1018.5
2018-12-21T01:07:57.412Z,1018.46
2018-12-21T01:08:57.525Z,1018.48
2018-12-21T01:09:57.476Z,1018.46
2018-12-21T01:10:57.468Z,1018.47
2018-12-21T01:11:57.422Z,1018.47
2018-12-21T01:12:57.635Z,1018.47
2018-12-21T01:13:57.471Z,1018.47
2018-12-21T01:14:57.445Z,1018.51
2018-12-21T01:15:57.633Z,1018.56
2018-12-21T01:16:57.987Z,1018.59
2018-12-21T01:17:57.673Z,1018.62
2018-12-21T01:18:57.441Z,1018.6
2018-12-21T01:19:57.586Z,1018.63
2018-12-21T01:20:57.781Z,1018.63
2018-12-21T01:21:57.446Z,1018.61
2018-12-21T01:22:57.478Z,1018.64
2018-12-21T01:23:57.406Z,1018.64
2018-12-21T01:24:57.595Z,1018.63
2018-12-21T01:25:57.746Z,1018.68
2018-12-21T01:26:57.643Z,1018.65
2018-12-21T01:27:57.589Z,1018.66
2018-12-21T01:28:57.475Z,1018.69
2018-12-21T01:29:57.514Z,1018.71
2018-12-21T01:30:57.561Z,1018.7
2018-12-21T01:31:57.428Z,1018.76
2018-12-21T01:32:57.618Z,1018.71
2018-12-21T01:33:57.575Z,1018.68
2018-12-21T01:34:57.434Z,1018.71
2018-12-21T01:35:57.462Z,1018.63
2018-12-21T01:36:57.477Z,1018.66
2018-12-21T01:37:57.466Z,1018.62
2018-12-21T01:38:57.407Z,1018.65
2018-12-21T01:39:57.396Z,1018.61
2018-12-21T01:40:57.374Z,1018.59
2018-12-21T01:41:57.946Z,1018.67
2018-12-21T01:42:57.385Z,1018.65
2018-12-21T01:43:57.495Z,1018.65
2018-12-21T01:44:57.672Z,1018.63
2018-12-21T01:45:58.225Z,1018.65
2018-12-21T01:46:57.575Z,1018.64
2018-12-21T01:47:57.399Z,1018.63
2018-12-21T01:48:58.192Z,1018.65
2018-12-21T01:49:57.374Z,1018.57
2018-12-21T01:50:57.372Z,1018.56
2018-12-21T01:51:57.399Z,1018.55
2018-12-21T01:52:57.441Z,1018.52
2018-12-21T01:53:57.488Z,1018.49
2018-12-21T01:54:57.506Z,1018.49
2018-12-21T01:55:57.601Z,1018.41
2018-12-21T01:56:57.540Z,1018.42
2018-12-21T01:57:57.600Z,1018.4
2018-12-21T01:58:57.583Z,1018.37
2018-12-21T01:59:57.562Z,1018.32
2018-12-21T02:00:57.349Z,1018.3
2018-12-21T02:01:57.736Z,1018.29
2018-12-21T02:02:57.585Z,1018.24
2018-12-21T02:03:57.540Z,1018.25
2018-12-21T02:04:58.173Z,1018.25
2018-12-21T02:05:57.713Z,1018.25
2018-12-21T02:06:57.457Z,1018.3
2018-12-21T02:07:57.514Z,1018.26
2018-12-21T02:08:57.589Z,1018.28
2018-12-21T02:09:57.328Z,1018.25
2018-12-21T02:10:57.480Z,1018.28
2018-12-21T02:11:57.451Z,1018.28
2018-12-21T02:12:57.693Z,1018.27
2018-12-21T02:13:57.382Z,1018.28
2018-12-21T02:14:57.355Z,1018.3
2018-12-21T02:15:57.508Z,1018.35
2018-12-21T02:16:57.334Z,1018.34
2018-12-21T02:17:57.571Z,1018.32
2018-12-21T02:18:57.442Z,1018.31
2018-12-21T02:19:57.689Z,1018.36
2018-12-21T02:20:57.374Z,1018.36
2018-12-21T02:21:57.640Z,1018.32
2018-12-21T02:22:57.470Z,1018.33
2018-12-21T02:23:57.654Z,1018.3
2018-12-21T02:24:57.826Z,1018.31
2018-12-21T02:25:58.158Z,1018.32
2018-12-21T02:26:57.382Z,1018.33
2018-12-21T02:27:57.337Z,1018.36
2018-12-21T02:28:57.314Z,1018.39
2018-12-21T02:29:57.371Z,1018.39
2018-12-21T02:30:57.573Z,1018.35
2018-12-21T02:31:57.466Z,1018.33
2018-12-21T02:32:57.498Z,1018.34
2018-12-21T02:33:57.331Z,1018.28
2018-12-21T02:34:57.338Z,1018.27
2018-12-21T02:35:57.295Z,1018.24
2018-12-21T02:36:57.310Z,1018.21
2018-12-21T02:37:57.344Z,1018.16
2018-12-21T02:38:57.298Z,1018.12
2018-12-21T02:39:57.338Z,1018.09
2018-12-21T02:40:57.349Z,1018.08
2018-12-21T02:41:57.472Z,1018.1
2018-12-21T02:42:57.326Z,1018.06
2018-12-21T02:43:57.363Z,1018.06
2018-12-21T02:44:57.273Z,1018.07
2018-12-21T02:45:57.350Z,1018.04
2018-12-21T02:46:57.336Z,1017.99
2018-12-21T02:47:57.433Z,1017.97
2018-12-21T02:48:57.301Z,1017.97
2018-12-21T02:49:57.318Z,1017.89
2018-12-21T02:50:57.285Z,1017.85
2018-12-21T02:52:05.889Z,1017.86
2018-12-21T02:52:57.310Z,1017.8
2018-12-21T02:53:57.330Z,1017.7
2018-12-21T02:54:57.554Z,1017.68
2018-12-21T02:55:57.363Z,1017.69
2018-12-21T02:56:57.380Z,1017.69
2018-12-21T02:57:57.362Z,1017.68
2018-12-21T02:58:57.480Z,1017.63
2018-12-21T02:59:57.308Z,1017.55
2018-12-21T03:00:57.277Z,1017.61
2018-12-21T03:01:57.314Z,1017.51
2018-12-21T03:02:57.500Z,1017.57
2018-12-21T03:03:57.744Z,1017.56
2018-12-21T03:04:57.442Z,1017.54
2018-12-21T03:05:57.455Z,1017.54
2018-12-21T03:06:57.562Z,1017.49
2018-12-21T03:07:57.279Z,1017.47
2018-12-21T03:08:57.487Z,1017.48
2018-12-21T03:09:57.333Z,1017.45
2018-12-21T03:10:57.308Z,1017.41
2018-12-21T03:11:57.375Z,1017.39
2018-12-21T03:12:57.295Z,1017.36
2018-12-21T03:13:57.257Z,1017.33
2018-12-21T03:14:57.492Z,1017.37
2018-12-21T03:15:57.413Z,1017.34
2018-12-21T03:16:57.556Z,1017.32
2018-12-21T03:17:57.391Z,1017.26
2018-12-21T03:18:57.415Z,1017.24
2018-12-21T03:19:57.515Z,1017.26
2018-12-21T03:20:57.253Z,1017.25
2018-12-21T03:21:57.453Z,1017.29
2018-12-21T03:22:57.345Z,1017.21
2018-12-21T03:23:57.350Z,1017.25
2018-12-21T03:24:57.255Z,1017.2
2018-12-21T03:25:57.478Z,1017.16
2018-12-21T03:26:57.406Z,1017.16
2018-12-21T03:27:57.444Z,1017.06
2018-12-21T03:28:57.268Z,1017.05
2018-12-21T03:29:57.565Z,1017.02
2018-12-21T03:30:57.323Z,1016.99
2018-12-21T03:31:57.329Z,1016.96
2018-12-21T03:32:57.298Z,1016.93
2018-12-21T03:33:57.253Z,1016.95
2018-12-21T03:34:57.549Z,1016.86
2018-12-21T03:35:57.242Z,1016.85
2018-12-21T03:36:57.382Z,1016.87
2018-12-21T03:37:57.289Z,1016.81
2018-12-21T03:38:57.532Z,1016.79
2018-12-21T03:39:57.231Z,1016.77
2018-12-21T03:40:58.058Z,1016.75
2018-12-21T03:41:58.070Z,1016.69
2018-12-21T03:42:57.301Z,1016.67
2018-12-21T03:43:57.434Z,1016.57
2018-12-21T03:44:57.221Z,1016.53
2018-12-21T03:45:57.576Z,1016.54
2018-12-21T03:46:57.357Z,1016.59
2018-12-21T03:47:57.233Z,1016.53
2018-12-21T03:48:57.218Z,1016.47
2018-12-21T03:49:57.852Z,1016.46
2018-12-21T03:50:57.392Z,1016.36
2018-12-21T03:51:57.218Z,1016.34
2018-12-21T03:52:57.223Z,1016.34
2018-12-21T03:53:57.229Z,1016.27
2018-12-21T03:54:57.383Z,1016.23
2018-12-21T03:55:57.298Z,1016.3
2018-12-21T03:56:57.188Z,1016.31
2018-12-21T03:57:57.364Z,1016.32
2018-12-21T03:58:57.416Z,1016.34
2018-12-21T03:59:57.312Z,1016.33
2018-12-21T04:00:57.352Z,1016.28
2018-12-21T04:01:57.220Z,1016.26
2018-12-21T04:02:57.693Z,1016.29
2018-12-21T04:03:58.051Z,1016.27
2018-12-21T04:04:57.651Z,1016.22
2018-12-21T04:05:57.200Z,1016.19
2018-12-21T04:06:57.280Z,1016.2
2018-12-21T04:07:57.296Z,1016.23
2018-12-21T04:08:57.378Z,1016.24
2018-12-21T04:09:57.410Z,1016.27
2018-12-21T04:10:57.320Z,1016.23
2018-12-21T04:11:57.186Z,1016.22
2018-12-21T04:12:57.226Z,1016.18
2018-12-21T04:13:57.526Z,1016.14
2018-12-21T04:14:57.207Z,1016.13
2018-12-21T04:15:57.339Z,1016.19
2018-12-21T04:16:57.297Z,1016.12
2018-12-21T04:17:57.221Z,1016.14
2018-12-21T04:18:57.281Z,1016.18
2018-12-21T04:19:57.359Z,1016.06
2018-12-21T04:20:57.239Z,1016.04
2018-12-21T04:21:57.221Z,1016.05
2018-12-21T04:22:57.241Z,1016.06
2018-12-21T04:23:57.269Z,1016
2018-12-21T04:24:57.273Z,1015.92
2018-12-21T04:25:57.448Z,1015.99
2018-12-21T04:26:57.342Z,1015.97
2018-12-21T04:27:57.175Z,1015.98
2018-12-21T04:28:57.261Z,1016.05
2018-12-21T04:29:57.161Z,1016.02
2018-12-21T04:30:57.204Z,1016.01
2018-12-21T04:31:57.177Z,1015.99
2018-12-21T04:32:57.170Z,1015.97
2018-12-21T04:33:57.206Z,1015.97
2018-12-21T04:34:57.165Z,1015.94
2018-12-21T04:35:57.249Z,1015.92
2018-12-21T04:36:57.208Z,1015.89
2018-12-21T04:37:57.392Z,1015.89
2018-12-21T04:38:57.500Z,1015.82
2018-12-21T04:39:57.430Z,1015.86
2018-12-21T04:40:57.286Z,1015.84
2018-12-21T04:41:57.227Z,1015.9
2018-12-21T04:42:57.251Z,1015.79
2018-12-21T04:43:57.327Z,1015.78
2018-12-21T04:44:57.170Z,1015.81
2018-12-21T04:45:57.348Z,1015.78
2018-12-21T04:46:57.176Z,1015.74
2018-12-21T04:47:57.246Z,1015.73
2018-12-21T04:48:57.250Z,1015.66
2018-12-21T04:49:57.155Z,1015.66
2018-12-21T04:50:57.411Z,1015.63
2018-12-21T04:51:57.965Z,1015.59
2018-12-21T04:52:57.396Z,1015.61
2018-12-21T04:53:57.652Z,1015.65
2018-12-21T04:54:57.234Z,1015.59
2018-12-21T04:55:57.135Z,1015.57
2018-12-21T04:56:57.329Z,1015.49
2018-12-21T04:57:57.249Z,1015.49
2018-12-21T04:58:57.217Z,1015.49
2018-12-21T04:59:57.178Z,1015.53
2018-12-21T05:00:57.281Z,1015.4
2018-12-21T05:01:57.228Z,1015.42
2018-12-21T05:02:57.233Z,1015.38
2018-12-21T05:03:57.140Z,1015.35
2018-12-21T05:04:57.303Z,1015.36
2018-12-21T05:05:57.522Z,1015.39
2018-12-21T05:06:58.699Z,1015.41
2018-12-21T05:07:57.258Z,1015.41
2018-12-21T05:08:57.310Z,1015.35
2018-12-21T05:09:57.441Z,1015.35
2018-12-21T05:10:57.093Z,1015.34
2018-12-21T05:11:57.942Z,1015.34
2018-12-21T05:12:57.498Z,1015.33
2018-12-21T05:13:57.108Z,1015.34
2018-12-21T05:14:57.116Z,1015.31
2018-12-21T05:15:57.355Z,1015.32
2018-12-21T05:16:57.132Z,1015.34
2018-12-21T05:17:57.262Z,1015.3
2018-12-21T05:18:57.644Z,1015.28
2018-12-21T05:19:57.256Z,1015.28
2018-12-21T05:20:57.357Z,1015.26
2018-12-21T05:21:57.169Z,1015.24
2018-12-21T05:22:57.337Z,1015.25
2018-12-21T05:23:57.818Z,1015.22
2018-12-21T05:24:57.522Z,1015.19
2018-12-21T05:25:57.466Z,1015.17
2018-12-21T05:26:57.173Z,1015.14
2018-12-21T05:27:57.635Z,1015.21
2018-12-21T05:28:57.408Z,1015.2
2018-12-21T05:29:57.188Z,1015.16
2018-12-21T05:30:57.132Z,1015.17
2018-12-21T05:31:57.258Z,1015.14
2018-12-21T05:32:57.312Z,1015.15
2018-12-21T05:33:57.281Z,1015.1
2018-12-21T05:34:57.227Z,1015.11
2018-12-21T05:35:57.249Z,1015.07
2018-12-21T05:36:57.506Z,1015.1
2018-12-21T05:37:57.958Z,1015.04
2018-12-21T05:38:57.321Z,1015.05
2018-12-21T05:39:57.199Z,1015.09
2018-12-21T05:40:57.141Z,1015.06
2018-12-21T05:41:57.297Z,1015.05
2018-12-21T05:42:57.112Z,1015.01
2018-12-21T05:43:57.943Z,1014.95
2018-12-21T05:44:57.503Z,1015.08
2018-12-21T05:45:57.082Z,1014.93
2018-12-21T05:46:57.128Z,1014.99
2018-12-21T05:47:57.237Z,1014.94
2018-12-21T05:48:57.156Z,1014.95
2018-12-21T05:49:57.147Z,1014.97
2018-12-21T05:50:57.254Z,1014.96
2018-12-21T05:51:57.279Z,1014.82
2018-12-21T05:53:01.165Z,1014.81
2018-12-21T05:53:57.387Z,1014.88
2018-12-21T05:54:57.219Z,1014.8
2018-12-21T05:55:57.291Z,1014.71
2018-12-21T05:56:57.277Z,1014.73
2018-12-21T05:57:57.068Z,1014.66
2018-12-21T05:58:57.160Z,1014.66
2018-12-21T05:59:57.110Z,1014.67
2018-12-21T06:00:57.056Z,1014.64
2018-12-21T06:01:57.071Z,1014.62
2018-12-21T06:02:57.088Z,1014.6
2018-12-21T06:03:57.041Z,1014.6
2018-12-21T06:04:57.048Z,1014.55
2018-12-21T06:05:57.076Z,1014.49
2018-12-21T06:06:57.109Z,1014.55
2018-12-21T06:07:57.097Z,1014.49
2018-12-21T06:08:57.150Z,1014.41
2018-12-21T06:09:57.089Z,1014.46
2018-12-21T06:10:57.308Z,1014.36
2018-12-21T06:11:57.069Z,1014.41
2018-12-21T06:12:57.075Z,1014.42
2018-12-21T06:13:57.047Z,1014.41
2018-12-21T06:14:57.045Z,1014.38
2018-12-21T06:15:57.044Z,1014.31
2018-12-21T06:16:57.102Z,1014.37
2018-12-21T06:17:57.317Z,1014.34
2018-12-21T06:18:57.090Z,1014.3
2018-12-21T06:19:57.089Z,1014.25
2018-12-21T06:20:57.332Z,1014.24
2018-12-21T06:21:57.117Z,1014.26
2018-12-21T06:22:57.586Z,1014.22
2018-12-21T06:23:57.208Z,1014.18
2018-12-21T06:24:57.025Z,1014.11
2018-12-21T06:25:57.067Z,1014.13
2018-12-21T06:26:57.041Z,1014.05
2018-12-21T06:27:57.091Z,1014.08
2018-12-21T06:28:57.008Z,1013.94
2018-12-21T06:29:57.261Z,1013.87
2018-12-21T06:30:57.505Z,1013.88
2018-12-21T06:31:57.009Z,1013.71
2018-12-21T06:32:57.062Z,1013.78
2018-12-21T06:33:57.345Z,1013.72
2018-12-21T06:34:57.082Z,1013.71
2018-12-21T06:35:57.153Z,1013.67
2018-12-21T06:36:57.057Z,1013.63
2018-12-21T06:37:57.233Z,1013.65
2018-12-21T06:38:57.026Z,1013.65
2018-12-21T06:39:57.375Z,1013.57
2018-12-21T06:40:57.303Z,1013.55
2018-12-21T06:41:57.160Z,1013.58
2018-12-21T06:42:57.287Z,1013.54
2018-12-21T06:43:57.174Z,1013.41
2018-12-21T06:44:57.057Z,1013.48
2018-12-21T06:45:56.990Z,1013.43
2018-12-21T06:46:57.168Z,1013.41
2018-12-21T06:47:57.430Z,1013.36
2018-12-21T06:48:57.053Z,1013.35
2018-12-21T06:49:57.240Z,1013.34
2018-12-21T06:50:57.108Z,1013.32
2018-12-21T06:51:57.013Z,1013.36
2018-12-21T06:52:57.097Z,1013.35
2018-12-21T06:53:57.065Z,1013.38
2018-12-21T06:54:57.098Z,1013.37
2018-12-21T06:55:57.532Z,1013.35
2018-12-21T06:56:57.249Z,1013.32
2018-12-21T06:57:57.226Z,1013.31
2018-12-21T06:58:57.005Z,1013.29
2018-12-21T06:59:57.048Z,1013.3
2018-12-21T07:00:57.162Z,1013.24
2018-12-21T07:01:57.013Z,1013.31
2018-12-21T07:02:57.020Z,1013.31
2018-12-21T07:03:56.997Z,1013.25
2018-12-21T07:04:57.309Z,1013.24
2018-12-21T07:05:57.192Z,1013.26
2018-12-21T07:06:57.470Z,1013.26
2018-12-21T07:07:57.053Z,1013.22
2018-12-21T07:08:56.983Z,1013.23
2018-12-21T07:09:56.992Z,1013.22
2018-12-21T07:10:57.185Z,1013.21
2018-12-21T07:11:57.348Z,1013.18
2018-12-21T07:12:57.750Z,1013.22
2018-12-21T07:13:56.978Z,1013.19
2018-12-21T07:14:56.958Z,1013.19
2018-12-21T07:15:56.966Z,1013.15
2018-12-21T07:16:57.173Z,1013.14
2018-12-21T07:17:57.022Z,1013.17
2018-12-21T07:18:57.035Z,1013.17
2018-12-21T07:19:57.222Z,1013.14
2018-12-21T07:20:57.233Z,1013.19
2018-12-21T07:21:56.970Z,1013.15
2018-12-21T07:22:57.113Z,1013.1
2018-12-21T07:23:57.191Z,1013.1
2018-12-21T07:24:57.217Z,1013.07
2018-12-21T07:25:57.021Z,1013.11
2018-12-21T07:26:57.779Z,1013.1
2018-12-21T07:27:56.948Z,1013.16
2018-12-21T07:28:57.347Z,1013.12
2018-12-21T07:29:57.785Z,1013.1
2018-12-21T07:30:57.049Z,1013.07
2018-12-21T07:31:57.121Z,1013.02
2018-12-21T07:32:57.090Z,1013.09
2018-12-21T07:33:56.943Z,1013.06
2018-12-21T07:34:57.367Z,1013
2018-12-21T07:35:57.255Z,1013.08
2018-12-21T07:36:57.143Z,1013.06
2018-12-21T07:37:57.066Z,1013.04
2018-12-21T07:38:57.055Z,1013.05
2018-12-21T07:39:57.054Z,1012.98
2018-12-21T07:40:56.965Z,1013.02
2018-12-21T07:41:57.161Z,1012.95
2018-12-21T07:42:57.093Z,1012.99
2018-12-21T07:43:57.039Z,1012.98
2018-12-21T07:44:57.117Z,1012.97
2018-12-21T07:45:57.021Z,1013.01
2018-12-21T07:46:57.093Z,1012.96
2018-12-21T07:47:56.972Z,1012.95
2018-12-21T07:48:57.002Z,1012.87
2018-12-21T07:49:57.139Z,1012.9
2018-12-21T07:50:56.938Z,1012.87
2018-12-21T07:51:57.007Z,1012.94
2018-12-21T07:52:56.979Z,1012.95
2018-12-21T07:53:57.085Z,1012.8
2018-12-21T07:54:57.219Z,1012.8
2018-12-21T07:55:56.971Z,1012.78
2018-12-21T07:56:57.040Z,1012.72
2018-12-21T07:57:58.760Z,1012.83
2018-12-21T07:58:57.751Z,1012.73
2018-12-21T07:59:57.152Z,1012.74
2018-12-21T08:00:57.160Z,1012.69
2018-12-21T08:01:57.070Z,1012.65
2018-12-21T08:02:56.908Z,1012.66
2018-12-21T08:03:57.143Z,1012.62
2018-12-21T08:04:57.554Z,1012.65
2018-12-21T08:05:57.073Z,1012.61
2018-12-21T08:06:57.144Z,1012.67
2018-12-21T08:07:57.227Z,1012.65
2018-12-21T08:08:57.059Z,1012.59
2018-12-21T08:09:57.349Z,1012.67
2018-12-21T08:10:57.202Z,1012.59
2018-12-21T08:11:57.024Z,1012.61
2018-12-21T08:12:57.030Z,1012.61
2018-12-21T08:13:57.141Z,1012.55
2018-12-21T08:14:57.081Z,1012.59
2018-12-21T08:15:56.980Z,1012.55
2018-12-21T08:16:56.981Z,1012.52
2018-12-21T08:17:57.428Z,1012.44
2018-12-21T08:18:57.208Z,1012.52
2018-12-21T08:19:57.058Z,1012.52
2018-12-21T08:20:56.915Z,1012.5
2018-12-21T08:21:56.944Z,1012.39
2018-12-21T08:22:56.899Z,1012.37
2018-12-21T08:23:57.035Z,1012.3
2018-12-21T08:24:57.163Z,1012.3
2018-12-21T08:25:57.343Z,1012.29
2018-12-21T08:26:56.975Z,1012.22
2018-12-21T08:27:57.598Z,1012.29
2018-12-21T08:28:56.952Z,1012.22
2018-12-21T08:29:57.028Z,1012.21
2018-12-21T08:30:57.272Z,1012.2
2018-12-21T08:31:57.706Z,1012.25
2018-12-21T08:32:57.125Z,1012.13
2018-12-21T08:33:56.994Z,1012.21
2018-12-21T08:34:57.001Z,1012.09
2018-12-21T08:35:57.114Z,1012.05
2018-12-21T08:36:57.174Z,1012.14
2018-12-21T08:37:56.893Z,1012.18
2018-12-21T08:38:56.843Z,1012.07
2018-12-21T08:39:57.095Z,1012.11
2018-12-21T08:40:57.024Z,1012.09
2018-12-21T08:41:57.121Z,1012.01
2018-12-21T08:42:57.146Z,1012.07
2018-12-21T08:43:57.124Z,1012.02
2018-12-21T08:44:57.802Z,1011.94
2018-12-21T08:45:57.167Z,1012.02
2018-12-21T08:46:57.688Z,1011.97
2018-12-21T08:47:57.046Z,1011.92
2018-12-21T08:48:57.089Z,1011.95
2018-12-21T08:49:57.349Z,1012.03
2018-12-21T08:50:57.087Z,1012.01
2018-12-21T08:51:56.855Z,1011.97
2018-12-21T08:52:56.999Z,1011.9
2018-12-21T08:53:57.085Z,1011.94
2018-12-21T08:54:57.009Z,1011.89
2018-12-21T08:55:57.224Z,1011.87
2018-12-21T08:56:56.843Z,1011.85
2018-12-21T08:57:57.673Z,1011.89
2018-12-21T08:58:57.072Z,1011.83
2018-12-21T08:59:57.147Z,1011.81
2018-12-21T09:00:57.022Z,1011.84
2018-12-21T09:01:57.415Z,1011.82
2018-12-21T09:02:57.015Z,1011.78
2018-12-21T09:03:57.120Z,1011.77
2018-12-21T09:04:56.892Z,1011.8
2018-12-21T09:05:57.037Z,1011.81
2018-12-21T09:06:57.093Z,1011.78
2018-12-21T09:07:57.256Z,1011.71
2018-12-21T09:08:57.013Z,1011.66
2018-12-21T09:09:56.859Z,1011.65
2018-12-21T09:10:56.949Z,1011.62
2018-12-21T09:11:56.999Z,1011.68
2018-12-21T09:12:56.859Z,1011.47
2018-12-21T09:13:57.094Z,1011.61
2018-12-21T09:14:56.824Z,1011.49
2018-12-21T09:15:57.289Z,1011.51
2018-12-21T09:16:57.049Z,1011.44
2018-12-21T09:17:56.823Z,1011.35
2018-12-21T09:18:56.872Z,1011.36
2018-12-21T09:19:56.948Z,1011.45
2018-12-21T09:20:56.955Z,1011.33
2018-12-21T09:21:56.961Z,1011.47
2018-12-21T09:22:56.802Z,1011.35
2018-12-21T09:24:01.494Z,1011.33
2018-12-21T09:24:57.176Z,1011.33
2018-12-21T09:25:56.921Z,1011.23
2018-12-21T09:26:56.822Z,1011.27
2018-12-21T09:27:57.150Z,1011.27
2018-12-21T09:28:56.785Z,1011.17
2018-12-21T09:29:56.995Z,1011.14
2018-12-21T09:30:57.002Z,1011.2
2018-12-21T09:32:05.444Z,1011.11
2018-12-21T09:32:56.786Z,1011.24
2018-12-21T09:33:56.807Z,1011.09
2018-12-21T09:34:57.187Z,1011.1
2018-12-21T09:35:56.997Z,1011
2018-12-21T09:36:56.858Z,1011.03
2018-12-21T09:37:56.997Z,1010.96
2018-12-21T09:38:56.780Z,1011.02
2018-12-21T09:39:56.876Z,1011.01
2018-12-21T09:40:56.947Z,1011
2018-12-21T09:41:56.912Z,1010.95
2018-12-21T09:42:56.824Z,1010.91
2018-12-21T09:43:56.769Z,1010.89
2018-12-21T09:44:57.090Z,1010.83
2018-12-21T09:45:57.071Z,1010.93
2018-12-21T09:46:57.050Z,1010.91
2018-12-21T09:47:56.997Z,1010.84
2018-12-21T09:48:57.159Z,1010.83
2018-12-21T09:49:56.961Z,1010.72
2018-12-21T09:50:57.093Z,1010.74
2018-12-21T09:51:57.016Z,1010.7
2018-12-21T09:52:57.590Z,1010.52
2018-12-21T09:53:56.968Z,1010.7
2018-12-21T09:54:56.979Z,1010.48
2018-12-21T09:55:56.781Z,1010.5
2018-12-21T09:56:56.754Z,1010.47
2018-12-21T09:57:56.990Z,1010.43
2018-12-21T09:58:56.937Z,1010.53
2018-12-21T09:59:56.840Z,1010.42
2018-12-21T10:00:57.613Z,1010.39
2018-12-21T10:01:56.792Z,1010.39
2018-12-21T10:02:56.814Z,1010.34
2018-12-21T10:03:56.937Z,1010.24
2018-12-21T10:04:56.826Z,1010.28
2018-12-21T10:05:57.015Z,1010.24
2018-12-21T10:06:57.161Z,1010.24
2018-12-21T10:07:56.748Z,1010.22
2018-12-21T10:08:56.947Z,1010.27
2018-12-21T10:09:57.595Z,1010.36
2018-12-21T10:10:56.918Z,1010.24
2018-12-21T10:11:57.137Z,1010.25
2018-12-21T10:12:56.921Z,1010.3
2018-12-21T10:13:56.959Z,1010.15
2018-12-21T10:14:57.051Z,1010.22
2018-12-21T10:15:57.091Z,1010.17
2018-12-21T10:16:56.812Z,1010.13
2018-12-21T10:17:57.553Z,1010.15
2018-12-21T10:18:56.991Z,1010.18
2018-12-21T10:19:57.581Z,1010.28
2018-12-21T10:20:56.788Z,1010.25
2018-12-21T10:21:56.769Z,1010.25
2018-12-21T10:22:56.798Z,1010.18
2018-12-21T10:23:57.017Z,1010.11
2018-12-21T10:24:56.811Z,1010.22
2018-12-21T10:25:56.948Z,1010.13
2018-12-21T10:26:57.062Z,1010.16
2018-12-21T10:27:56.888Z,1010.12
2018-12-21T10:28:56.740Z,1010.1
2018-12-21T10:29:56.773Z,1010.14
2018-12-21T10:30:57.558Z,1010.16
2018-12-21T10:31:56.792Z,1010.08
2018-12-21T10:32:57.539Z,1010.06
2018-12-21T10:33:56.901Z,1010.08
2018-12-21T10:34:57.033Z,1010.03
2018-12-21T10:35:56.739Z,1010.05
2018-12-21T10:36:57.570Z,1010.05
2018-12-21T10:37:57.577Z,1010.02
2018-12-21T10:38:56.995Z,1009.95
2018-12-21T10:39:56.975Z,1010.03
2018-12-21T10:40:57.077Z,1010.04
2018-12-21T10:41:56.998Z,1010.05
2018-12-21T10:42:56.717Z,1009.96
2018-12-21T10:43:57.518Z,1009.88
2018-12-21T10:44:56.490Z,1009.96
2018-12-21T10:45:56.749Z,1009.9
2018-12-21T10:46:57.500Z,1009.92
2018-12-21T10:47:56.968Z,1009.95
2018-12-21T10:48:56.929Z,1009.84
2018-12-21T10:49:56.711Z,1009.96
2018-12-21T10:50:56.703Z,1009.9
2018-12-21T10:51:57.527Z,1009.96
2018-12-21T10:52:56.804Z,1009.93
2018-12-21T10:53:56.942Z,1009.91
2018-12-21T10:54:57.055Z,1010.02
2018-12-21T10:55:57.026Z,1009.94
2018-12-21T10:56:57.079Z,1009.83
2018-12-21T10:57:56.836Z,1009.9
2018-12-21T10:58:56.736Z,1009.89
2018-12-21T10:59:56.984Z,1009.86
2018-12-21T11:00:56.685Z,1009.88
2018-12-21T11:01:56.646Z,1009.92
2018-12-21T11:02:56.680Z,1009.88
2018-12-21T11:03:56.702Z,1009.83
2018-12-21T11:04:56.684Z,1009.84
2018-12-21T11:05:56.665Z,1009.86
2018-12-21T11:06:56.706Z,1009.84
2018-12-21T11:07:56.687Z,1009.83
2018-12-21T11:08:56.707Z,1009.88
2018-12-21T11:09:56.746Z,1009.82
2018-12-21T11:10:56.917Z,1009.72
2018-12-21T11:11:56.672Z,1009.77
2018-12-21T11:12:56.628Z,1009.73
2018-12-21T11:13:56.689Z,1009.65
2018-12-21T11:14:56.634Z,1009.68
2018-12-21T11:15:56.732Z,1009.68
2018-12-21T11:16:56.713Z,1009.74
2018-12-21T11:17:56.775Z,1009.68
2018-12-21T11:18:57.145Z,1009.64
2018-12-21T11:19:56.928Z,1009.55
2018-12-21T11:20:56.977Z,1009.65
2018-12-21T11:21:56.889Z,1009.6
2018-12-21T11:22:57.004Z,1009.59
2018-12-21T11:23:56.992Z,1009.64
2018-12-21T11:24:57.314Z,1009.51
2018-12-21T11:25:56.623Z,1009.56
2018-12-21T11:26:56.636Z,1009.69
2018-12-21T11:27:56.740Z,1009.53
2018-12-21T11:28:56.640Z,1009.55
2018-12-21T11:29:56.878Z,1009.71
2018-12-21T11:30:56.885Z,1009.65
2018-12-21T11:31:56.617Z,1009.64
2018-12-21T11:32:57.328Z,1009.63
2018-12-21T11:33:56.624Z,1009.67
2018-12-21T11:34:56.856Z,1009.61
2018-12-21T11:35:56.865Z,1009.69
2018-12-21T11:36:56.645Z,1009.59
2018-12-21T11:37:57.075Z,1009.54
2018-12-21T11:38:56.696Z,1009.52
2018-12-21T11:39:56.678Z,1009.47
2018-12-21T11:40:56.972Z,1009.55
2018-12-21T11:41:56.967Z,1009.49
2018-12-21T11:42:56.924Z,1009.54
2018-12-21T11:43:56.732Z,1009.56
2018-12-21T11:44:56.728Z,1009.58
2018-12-21T11:45:56.906Z,1009.41
2018-12-21T11:46:57.461Z,1009.65
2018-12-21T11:47:56.852Z,1009.48
2018-12-21T11:48:56.745Z,1009.44
2018-12-21T11:49:56.604Z,1009.36
2018-12-21T11:50:56.698Z,1009.38
2018-12-21T11:51:56.910Z,1009.52
2018-12-21T11:52:56.685Z,1009.46
2018-12-21T11:53:56.640Z,1009.47
2018-12-21T11:54:56.645Z,1009.5
2018-12-21T11:55:57.442Z,1009.49
2018-12-21T11:56:56.640Z,1009.48
2018-12-21T11:57:56.823Z,1009.45
2018-12-21T11:58:56.790Z,1009.43
2018-12-21T11:59:56.638Z,1009.48
2018-12-21T12:00:57.422Z,1009.48
2018-12-21T12:01:57.437Z,1009.46
2018-12-21T12:02:56.738Z,1009.49
2018-12-21T12:03:57.466Z,1009.46
2018-12-21T12:04:56.604Z,1009.33
2018-12-21T12:05:56.777Z,1009.45
2018-12-21T12:06:56.969Z,1009.49
2018-12-21T12:07:56.979Z,1009.44